createdAt,value
2019-04-01T00:00:18.929Z,1020.67
2019-04-01T00:01:18.904Z,1020.66
2019-04-01T00:02:18.892Z,1020.68
2019-04-01T00:03:18.860Z,1020.62
2019-04-01T00:04:18.826Z,1020.61
2019-04-01T00:05:18.800Z,1020.63
2019-04-01T00:06:18.777Z,1020.63
2019-04-01T00:07:18.750Z,1020.61
2019-04-01T00:08:18.734Z,1020.64
2019-04-01T00:09:18.698Z,1020.63
2019-04-01T00:10:18.673Z,1020.59
2019-04-01T00:11:18.648Z,1020.58
2019-04-01T00:12:18.624Z,1020.59
2019-04-01T00:13:18.598Z,1020.66
2019-04-01T00:14:18.581Z,1020.61
2019-04-01T00:15:18.545Z,1020.63
2019-04-01T00:16:18.524Z,1020.58
2019-04-01T00:17:18.496Z,1020.55
2019-04-01T00:18:18.474Z,1020.57
2019-04-01T00:19:18.447Z,1020.52
2019-04-01T00:20:18.421Z,1020.53
2019-04-01T00:21:18.395Z,1020.48
2019-04-01T00:22:18.369Z,1020.50
2019-04-01T00:23:18.345Z,1020.52
2019-04-01T00:24:18.319Z,1020.56
2019-04-01T00:25:18.305Z,1020.53
2019-04-01T00:26:18.268Z,1020.54
2019-04-01T00:27:18.241Z,1020.46
2019-04-01T00:28:18.216Z,1020.51
2019-04-01T00:29:18.193Z,1020.47
2019-04-01T00:30:18.168Z,1020.48
2019-04-01T00:31:18.139Z,1020.52
2019-04-01T00:32:18.122Z,1020.45
2019-04-01T00:33:18.089Z,1020.49
2019-04-01T00:34:18.066Z,1020.46
2019-04-01T00:35:18.038Z,1020.47
2019-04-01T00:36:18.012Z,1020.46
2019-04-01T00:37:18.042Z,1020.50
2019-04-01T00:38:17.961Z,1020.47
2019-04-01T00:39:17.941Z,1020.48
2019-04-01T00:40:17.912Z,1020.46
2019-04-01T00:41:17.892Z,1020.47
2019-04-01T00:42:17.859Z,1020.49
2019-04-01T00:43:17.841Z,1020.49
2019-04-01T00:44:17.810Z,1020.50
2019-04-01T00:45:17.782Z,1020.51
2019-04-01T00:46:17.756Z,1020.51
2019-04-01T00:47:17.729Z,1020.45
2019-04-01T00:48:17.705Z,1020.49
2019-04-01T00:49:17.679Z,1020.46
2019-04-01T00:50:17.654Z,1020.47
2019-04-01T00:51:17.629Z,1020.44
2019-04-01T00:52:17.610Z,1020.40
2019-04-01T00:53:18.126Z,1020.44
2019-04-01T00:54:17.553Z,1020.38
2019-04-01T00:55:17.526Z,1020.36
2019-04-01T00:56:17.499Z,1020.38
2019-04-01T00:57:17.474Z,1020.33
2019-04-01T00:58:17.455Z,1020.33
2019-04-01T00:59:17.423Z,1020.33
2019-04-01T01:00:17.397Z,1020.34
2019-04-01T01:01:17.371Z,1020.30
2019-04-01T01:02:17.348Z,1020.36
2019-04-01T01:03:17.329Z,1020.35
2019-04-01T01:04:17.303Z,1020.39
2019-04-01T01:05:17.269Z,1020.28
2019-04-01T01:06:17.246Z,1020.26
2019-04-01T01:07:17.226Z,1020.27
2019-04-01T01:08:17.201Z,1020.23
2019-04-01T01:09:17.170Z,1020.25
2019-04-01T01:10:17.151Z,1020.23
2019-04-01T01:11:17.114Z,1020.23
2019-04-01T01:12:17.089Z,1020.24
2019-04-01T01:13:17.071Z,1020.20
2019-04-01T01:14:17.039Z,1020.19
2019-04-01T01:15:17.111Z,1020.26
2019-04-01T01:16:16.986Z,1020.22
2019-04-01T01:17:16.970Z,1020.22
2019-04-01T01:18:16.938Z,1020.22
2019-04-01T01:19:16.910Z,1020.16
2019-04-01T01:20:16.884Z,1020.16
2019-04-01T01:21:16.859Z,1020.12
2019-04-01T01:22:16.833Z,1020.13
2019-04-01T01:23:16.806Z,1020.16
2019-04-01T01:24:16.781Z,1020.11
2019-04-01T01:25:16.763Z,1020.07
2019-04-01T01:26:16.738Z,1020.10
2019-04-01T01:27:16.703Z,1020.07
2019-04-01T01:28:16.684Z,1020.08
2019-04-01T01:29:16.654Z,1020.05
2019-04-01T01:30:16.627Z,1020.03
2019-04-01T01:31:16.600Z,1020.04
2019-04-01T01:32:16.576Z,1020.04
2019-04-01T01:33:16.548Z,1020.02
2019-04-01T01:34:16.527Z,1020.05
2019-04-01T01:35:16.497Z,1020.02
2019-04-01T01:36:16.480Z,1020.04
2019-04-01T01:37:16.446Z,1020.01
2019-04-01T01:38:16.421Z,1020.00
2019-04-01T01:39:16.400Z,1019.99
2019-04-01T01:40:16.379Z,1019.98
2019-04-01T01:41:16.344Z,1019.99
2019-04-01T01:42:16.316Z,1019.99
2019-04-01T01:43:16.291Z,1019.98
2019-04-01T01:44:16.273Z,1019.93
2019-04-01T01:45:16.245Z,1019.90
2019-04-01T01:46:16.244Z,1019.92
2019-04-01T01:47:16.190Z,1019.96
2019-04-01T01:48:16.161Z,1019.90
2019-04-01T01:49:16.146Z,1019.92
2019-04-01T01:50:16.112Z,1019.89
2019-04-01T01:51:16.095Z,1019.88
2019-04-01T01:52:16.058Z,1019.87
2019-04-01T01:53:16.033Z,1019.87
2019-04-01T01:54:16.007Z,1019.88
2019-04-01T01:55:15.984Z,1019.87
2019-04-01T01:56:15.981Z,1019.85
2019-04-01T01:57:15.934Z,1019.85
2019-04-01T01:58:15.919Z,1019.85
2019-04-01T01:59:15.879Z,1019.80
2019-04-01T02:00:15.861Z,1019.87
2019-04-01T02:01:15.917Z,1019.88
2019-04-01T02:02:15.802Z,1019.86
2019-04-01T02:03:15.774Z,1019.89
2019-04-01T02:04:15.759Z,1019.84
2019-04-01T02:05:15.723Z,1019.86
2019-04-01T02:06:15.763Z,1019.84
2019-04-01T02:07:15.672Z,1019.88
2019-04-01T02:08:15.646Z,1019.85
2019-04-01T02:09:15.626Z,1019.85
2019-04-01T02:10:15.595Z,1019.85
2019-04-01T02:11:15.567Z,1019.91
2019-04-01T02:12:15.542Z,1019.84
2019-04-01T02:13:15.518Z,1019.85
2019-04-01T02:14:15.491Z,1019.84
2019-04-01T02:15:15.466Z,1019.86
2019-04-01T02:16:15.439Z,1019.84
2019-04-01T02:17:15.420Z,1019.84
2019-04-01T02:18:15.392Z,1019.84
2019-04-01T02:19:15.361Z,1019.86
2019-04-01T02:20:15.335Z,1019.84
2019-04-01T02:21:15.315Z,1019.84
2019-04-01T02:22:15.284Z,1019.81
2019-04-01T02:23:15.256Z,1019.80
2019-04-01T02:24:15.238Z,1019.80
2019-04-01T02:25:15.293Z,1019.79
2019-04-01T02:26:15.182Z,1019.79
2019-04-01T02:27:15.153Z,1019.79
2019-04-01T02:28:15.133Z,1019.78
2019-04-01T02:29:15.107Z,1019.77
2019-04-01T02:30:15.091Z,1019.75
2019-04-01T02:31:15.057Z,1019.79
2019-04-01T02:32:15.078Z,1019.77
2019-04-01T02:33:15.006Z,1019.76
2019-04-01T02:34:14.972Z,1019.82
2019-04-01T02:35:14.945Z,1019.79
2019-04-01T02:36:14.922Z,1019.78
2019-04-01T02:37:14.923Z,1019.77
2019-04-01T02:38:14.871Z,1019.76
2019-04-01T02:39:14.901Z,1019.78
2019-04-01T02:40:14.822Z,1019.79
2019-04-01T02:41:14.812Z,1019.82
2019-04-01T02:42:14.769Z,1019.83
2019-04-01T02:43:14.753Z,1019.81
2019-04-01T02:44:14.714Z,1019.79
2019-04-01T02:45:14.690Z,1019.75
2019-04-01T02:46:14.664Z,1019.82
2019-04-01T02:47:14.645Z,1019.76
2019-04-01T02:48:14.609Z,1019.78
2019-04-01T02:49:14.682Z,1019.77
2019-04-01T02:50:14.568Z,1019.78
2019-04-01T02:51:14.557Z,1019.77
2019-04-01T02:52:14.510Z,1019.75
2019-04-01T02:53:14.498Z,1019.75
2019-04-01T02:54:14.465Z,1019.74
2019-04-01T02:55:14.427Z,1019.71
2019-04-01T02:56:14.401Z,1019.72
2019-04-01T02:57:14.378Z,1019.69
2019-04-01T02:58:14.353Z,1019.67
2019-04-01T02:59:14.336Z,1019.67
2019-04-01T03:00:14.298Z,1019.73
2019-04-01T03:01:14.271Z,1019.71
2019-04-01T03:02:14.265Z,1019.71
2019-04-01T03:03:14.223Z,1019.62
2019-04-01T03:04:14.199Z,1019.68
2019-04-01T03:05:14.177Z,1019.67
2019-04-01T03:06:14.142Z,1019.66
2019-04-01T03:07:14.132Z,1019.66
2019-04-01T03:08:14.096Z,1019.69
2019-04-01T03:09:14.069Z,1019.68
2019-04-01T03:10:14.038Z,1019.71
2019-04-01T03:11:14.012Z,1019.64
2019-04-01T03:12:13.987Z,1019.65
2019-04-01T03:13:13.963Z,1019.66
2019-04-01T03:14:13.935Z,1019.66
2019-04-01T03:15:13.908Z,1019.63
2019-04-01T03:16:13.936Z,1019.62
2019-04-01T03:17:13.855Z,1019.62
2019-04-01T03:18:13.850Z,1019.58
2019-04-01T03:19:13.806Z,1019.58
2019-04-01T03:20:13.778Z,1019.57
2019-04-01T03:21:13.759Z,1019.62
2019-04-01T03:22:13.723Z,1019.57
2019-04-01T03:23:13.703Z,1019.59
2019-04-01T03:24:13.674Z,1019.56
2019-04-01T03:25:13.647Z,1019.59
2019-04-01T03:26:13.621Z,1019.58
2019-04-01T03:27:17.189Z,1019.61
2019-04-01T03:28:13.586Z,1019.54
2019-04-01T03:29:13.543Z,1019.56
2019-04-01T03:30:13.531Z,1019.53
2019-04-01T03:31:13.489Z,1019.51
2019-04-01T03:32:13.466Z,1019.50
2019-04-01T03:33:13.488Z,1019.50
2019-04-01T03:34:13.411Z,1019.53
2019-04-01T03:35:13.427Z,1019.51
2019-04-01T03:36:13.363Z,1019.53
2019-04-01T03:37:13.340Z,1019.56
2019-04-01T03:38:13.306Z,1019.51
2019-04-01T03:39:13.285Z,1019.48
2019-04-01T03:40:13.253Z,1019.46
2019-04-01T03:41:13.226Z,1019.49
2019-04-01T03:42:13.211Z,1019.49
2019-04-01T03:43:13.181Z,1019.49
2019-04-01T03:44:13.150Z,1019.49
2019-04-01T03:45:13.122Z,1019.49
2019-04-01T03:46:13.096Z,1019.51
2019-04-01T03:47:13.069Z,1019.51
2019-04-01T03:48:13.047Z,1019.49
2019-04-01T03:49:13.077Z,1019.50
2019-04-01T03:50:12.993Z,1019.50
2019-04-01T03:51:12.965Z,1019.50
2019-04-01T03:52:12.938Z,1019.48
2019-04-01T03:53:12.913Z,1019.50
2019-04-01T03:54:12.886Z,1019.43
2019-04-01T03:55:12.857Z,1019.45
2019-04-01T03:56:12.847Z,1019.43
2019-04-01T03:57:12.807Z,1019.42
2019-04-01T03:58:12.781Z,1019.41
2019-04-01T03:59:12.754Z,1019.36
2019-04-01T04:00:12.746Z,1019.40
2019-04-01T04:01:12.716Z,1019.37
2019-04-01T04:02:12.698Z,1019.39
2019-04-01T04:03:12.649Z,1019.39
2019-04-01T04:04:12.624Z,1019.42
2019-04-01T04:05:12.603Z,1019.35
2019-04-01T04:06:12.582Z,1019.32
2019-04-01T04:07:12.542Z,1019.38
2019-04-01T04:08:12.518Z,1019.35
2019-04-01T04:09:12.493Z,1019.35
2019-04-01T04:10:12.464Z,1019.31
2019-04-01T04:11:12.526Z,1019.35
2019-04-01T04:12:12.413Z,1019.31
2019-04-01T04:13:12.387Z,1019.32
2019-04-01T04:14:12.370Z,1019.35
2019-04-01T04:15:12.341Z,1019.33
2019-04-01T04:16:12.308Z,1019.30
2019-04-01T04:17:12.281Z,1019.31
2019-04-01T04:18:12.260Z,1019.32
2019-04-01T04:19:12.238Z,1019.35
2019-04-01T04:20:12.204Z,1019.36
2019-04-01T04:21:12.178Z,1019.35
2019-04-01T04:22:12.151Z,1019.38
2019-04-01T04:23:12.122Z,1019.36
2019-04-01T04:24:12.102Z,1019.38
2019-04-01T04:25:12.076Z,1019.41
2019-04-01T04:26:12.043Z,1019.34
2019-04-01T04:27:12.068Z,1019.41
2019-04-01T04:28:12.004Z,1019.38
2019-04-01T04:29:11.973Z,1019.41
2019-04-01T04:30:11.973Z,1019.42
2019-04-01T04:31:11.919Z,1019.41
2019-04-01T04:32:11.885Z,1019.41
2019-04-01T04:33:11.860Z,1019.38
2019-04-01T04:34:11.835Z,1019.38
2019-04-01T04:35:11.817Z,1019.39
2019-04-01T04:36:11.784Z,1019.42
2019-04-01T04:37:11.756Z,1019.40
2019-04-01T04:38:11.731Z,1019.45
2019-04-01T04:39:11.709Z,1019.41
2019-04-01T04:40:11.676Z,1019.41
2019-04-01T04:41:11.646Z,1019.42
2019-04-01T04:42:11.621Z,1019.40
2019-04-01T04:43:11.593Z,1019.43
2019-04-01T04:44:11.597Z,1019.43
2019-04-01T04:45:11.541Z,1019.43
2019-04-01T04:46:11.523Z,1019.42
2019-04-01T04:47:11.490Z,1019.39
2019-04-01T04:48:11.462Z,1019.39
2019-04-01T04:49:11.435Z,1019.38
2019-04-01T04:50:11.409Z,1019.40
2019-04-01T04:51:11.383Z,1019.40
2019-04-01T04:52:11.356Z,1019.37
2019-04-01T04:53:11.337Z,1019.42
2019-04-01T04:54:11.309Z,1019.42
2019-04-01T04:55:11.279Z,1019.40
2019-04-01T04:56:11.261Z,1019.42
2019-04-01T04:57:11.225Z,1019.42
2019-04-01T04:58:11.197Z,1019.42
2019-04-01T04:59:11.177Z,1019.40
2019-04-01T05:00:11.154Z,1019.40
2019-04-01T05:01:11.144Z,1019.40
2019-04-01T05:02:11.097Z,1019.40
2019-04-01T05:03:11.074Z,1019.46
2019-04-01T05:04:11.056Z,1019.43
2019-04-01T05:05:11.013Z,1019.43
2019-04-01T05:06:10.988Z,1019.38
2019-04-01T05:07:10.960Z,1019.40
2019-04-01T05:08:10.932Z,1019.41
2019-04-01T05:09:10.906Z,1019.42
2019-04-01T05:10:10.887Z,1019.44
2019-04-01T05:11:10.852Z,1019.47
2019-04-01T05:12:10.826Z,1019.42
2019-04-01T05:13:10.798Z,1019.48
2019-04-01T05:14:10.780Z,1019.44
2019-04-01T05:15:10.753Z,1019.43
2019-04-01T05:16:10.735Z,1019.41
2019-04-01T05:17:10.694Z,1019.44
2019-04-01T05:18:10.668Z,1019.43
2019-04-01T05:19:10.640Z,1019.44
2019-04-01T05:20:10.615Z,1019.45
2019-04-01T05:21:10.587Z,1019.42
2019-04-01T05:22:10.567Z,1019.43
2019-04-01T05:23:10.534Z,1019.43
2019-04-01T05:24:10.518Z,1019.43
2019-04-01T05:25:10.482Z,1019.44
2019-04-01T05:26:10.472Z,1019.43
2019-04-01T05:27:10.427Z,1019.44
2019-04-01T05:28:10.402Z,1019.47
2019-04-01T05:29:10.378Z,1019.48
2019-04-01T05:30:10.351Z,1019.45
2019-04-01T05:31:10.321Z,1019.47
2019-04-01T05:32:10.303Z,1019.49
2019-04-01T05:33:10.273Z,1019.49
2019-04-01T05:34:10.248Z,1019.49
2019-04-01T05:35:10.215Z,1019.45
2019-04-01T05:36:10.189Z,1019.48
2019-04-01T05:37:10.172Z,1019.50
2019-04-01T05:38:10.142Z,1019.48
2019-04-01T05:39:10.120Z,1019.53
2019-04-01T05:40:10.084Z,1019.53
2019-04-01T05:41:10.056Z,1019.51
2019-04-01T05:42:10.032Z,1019.56
2019-04-01T05:43:10.005Z,1019.57
2019-04-01T05:44:09.980Z,1019.60
2019-04-01T05:45:09.954Z,1019.60
2019-04-01T05:46:09.925Z,1019.63
2019-04-01T05:47:09.904Z,1019.60
2019-04-01T05:48:09.872Z,1019.62
2019-04-01T05:49:09.850Z,1019.61
2019-04-01T05:50:09.821Z,1019.61
2019-04-01T05:51:09.802Z,1019.60
2019-04-01T05:52:09.767Z,1019.55
2019-04-01T05:53:09.741Z,1019.58
2019-04-01T05:54:09.713Z,1019.62
2019-04-01T05:55:09.692Z,1019.60
2019-04-01T05:56:09.664Z,1019.56
2019-04-01T05:57:09.635Z,1019.60
2019-04-01T05:58:09.609Z,1019.60
2019-04-01T05:59:09.583Z,1019.63
2019-04-01T06:00:09.569Z,1019.62
2019-04-01T06:01:09.530Z,1019.59
2019-04-01T06:02:09.504Z,1019.63
2019-04-01T06:03:09.486Z,1019.58
2019-04-01T06:04:09.450Z,1019.61
2019-04-01T06:05:09.425Z,1019.63
2019-04-01T06:06:09.397Z,1019.63
2019-04-01T06:07:09.372Z,1019.61
2019-04-01T06:08:09.346Z,1019.61
2019-04-01T06:09:09.319Z,1019.63
2019-04-01T06:10:09.293Z,1019.61
2019-04-01T06:11:09.272Z,1019.66
2019-04-01T06:12:09.241Z,1019.63
2019-04-01T06:13:09.215Z,1019.67
2019-04-01T06:14:09.190Z,1019.68
2019-04-01T06:15:09.168Z,1019.67
2019-04-01T06:16:09.138Z,1019.67
2019-04-01T06:17:09.119Z,1019.65
2019-04-01T06:18:09.085Z,1019.69
2019-04-01T06:19:09.058Z,1019.69
2019-04-01T06:20:09.032Z,1019.66
2019-04-01T06:21:09.005Z,1019.72
2019-04-01T06:22:08.983Z,1019.86
2019-04-01T06:23:08.956Z,1019.90
2019-04-01T06:24:08.929Z,1019.96
2019-04-01T06:25:08.907Z,1020.03
2019-04-01T06:26:08.888Z,1019.93
2019-04-01T06:27:08.853Z,1019.85
2019-04-01T06:28:08.826Z,1019.84
2019-04-01T06:29:08.801Z,1019.81
2019-04-01T06:30:08.776Z,1019.76
2019-04-01T06:31:08.838Z,1019.74
2019-04-01T06:32:08.727Z,1019.72
2019-04-01T06:33:08.705Z,1019.77
2019-04-01T06:34:08.676Z,1019.80
2019-04-01T06:35:08.653Z,1019.73
2019-04-01T06:36:08.630Z,1019.71
2019-04-01T06:37:08.603Z,1019.73
2019-04-01T06:38:08.577Z,1019.69
2019-04-01T06:39:08.569Z,1019.78
2019-04-01T06:40:08.544Z,1019.75
2019-04-01T06:41:08.504Z,1019.72
2019-04-01T06:42:08.493Z,1019.70
2019-04-01T06:43:08.481Z,1019.75
2019-04-01T06:44:08.429Z,1019.75
2019-04-01T06:45:08.413Z,1019.71
2019-04-01T06:46:08.384Z,1019.72
2019-04-01T06:47:08.357Z,1019.72
2019-04-01T06:48:08.332Z,1019.73
2019-04-01T06:49:08.310Z,1019.68
2019-04-01T06:50:08.291Z,1019.76
2019-04-01T06:51:08.256Z,1019.71
2019-04-01T06:52:08.231Z,1019.73
2019-04-01T06:53:08.206Z,1019.76
2019-04-01T06:54:08.181Z,1019.72
2019-04-01T06:55:08.157Z,1019.72
2019-04-01T06:56:08.147Z,1019.72
2019-04-01T06:57:08.109Z,1019.69
2019-04-01T06:58:08.084Z,1019.72
2019-04-01T06:59:08.057Z,1019.67
2019-04-01T07:00:08.031Z,1019.69
2019-04-01T07:01:08.015Z,1019.64
2019-04-01T07:02:07.982Z,1019.68
2019-04-01T07:03:07.953Z,1019.68
2019-04-01T07:04:08.132Z,1019.68
2019-04-01T07:05:07.916Z,1019.60
2019-04-01T07:06:07.949Z,1019.67
2019-04-01T07:07:18.877Z,1019.59
2019-04-01T07:08:07.833Z,1019.65
2019-04-01T07:09:07.808Z,1019.63
2019-04-01T07:10:07.833Z,1019.60
2019-04-01T07:11:07.755Z,1019.59
2019-04-01T07:12:07.731Z,1019.60
2019-04-01T07:13:07.720Z,1019.62
2019-04-01T07:14:07.685Z,1019.61
2019-04-01T07:15:07.656Z,1019.62
2019-04-01T07:16:15.233Z,1019.63
2019-04-01T07:17:07.607Z,1019.63
2019-04-01T07:18:07.592Z,1019.60
2019-04-01T07:19:07.556Z,1019.65
2019-04-01T07:20:08.921Z,1019.60
2019-04-01T07:21:07.507Z,1019.54
2019-04-01T07:22:07.481Z,1019.56
2019-04-01T07:23:07.466Z,1019.55
2019-04-01T07:24:07.439Z,1019.58
2019-04-01T07:25:07.405Z,1019.55
2019-04-01T07:26:07.380Z,1019.60
2019-04-01T07:27:08.245Z,1019.56
2019-04-01T07:28:07.337Z,1019.52
2019-04-01T07:29:07.306Z,1019.55
2019-04-01T07:30:07.283Z,1019.49
2019-04-01T07:31:07.388Z,1019.52
2019-04-01T07:32:07.230Z,1019.49
2019-04-01T07:33:07.204Z,1019.47
2019-04-01T07:34:07.202Z,1019.47
2019-04-01T07:35:07.152Z,1019.55
2019-04-01T07:36:07.130Z,1019.51
2019-04-01T07:37:07.112Z,1019.50
2019-04-01T07:38:07.081Z,1019.56
2019-04-01T07:39:07.054Z,1019.49
2019-04-01T07:40:07.029Z,1019.46
2019-04-01T07:41:07.003Z,1019.45
2019-04-01T07:42:06.979Z,1019.68
2019-04-01T07:43:06.960Z,1019.64
2019-04-01T07:44:06.929Z,1019.62
2019-04-01T07:45:06.903Z,1019.63
2019-04-01T07:46:08.357Z,1019.54
2019-04-01T07:47:06.941Z,1019.57
2019-04-01T07:48:06.831Z,1019.53
2019-04-01T07:49:09.431Z,1019.51
2019-04-01T07:50:06.805Z,1019.57
2019-04-01T07:51:07.397Z,1019.54
2019-04-01T07:52:06.736Z,1019.53
2019-04-01T07:53:06.726Z,1019.60
2019-04-01T07:54:06.700Z,1019.65
2019-04-01T07:55:06.661Z,1019.70
2019-04-01T07:56:06.638Z,1019.71
2019-04-01T07:57:06.624Z,1019.69
2019-04-01T07:58:06.592Z,1019.77
2019-04-01T07:59:06.571Z,1019.66
2019-04-01T08:00:06.557Z,1019.69
2019-04-01T08:01:06.519Z,1019.71
2019-04-01T08:02:06.498Z,1019.61
2019-04-01T08:03:06.481Z,1019.68
2019-04-01T08:04:06.451Z,1019.63
2019-04-01T08:05:06.429Z,1019.64
2019-04-01T08:06:06.409Z,1019.67
2019-04-01T08:07:06.386Z,1019.66
2019-04-01T08:08:06.366Z,1019.64
2019-04-01T08:09:06.343Z,1019.67
2019-04-01T08:10:06.319Z,1019.84
2019-04-01T08:11:06.300Z,1019.77
2019-04-01T08:12:06.274Z,1019.91
2019-04-01T08:13:06.262Z,1019.87
2019-04-01T08:14:06.236Z,1019.81
2019-04-01T08:15:06.211Z,1019.85
2019-04-01T08:16:06.194Z,1019.75
2019-04-01T08:17:06.179Z,1019.74
2019-04-01T08:18:06.165Z,1019.68
2019-04-01T08:19:06.124Z,1019.67
2019-04-01T08:20:06.109Z,1019.77
2019-04-01T08:21:06.089Z,1019.85
2019-04-01T08:22:06.064Z,1019.76
2019-04-01T08:23:06.047Z,1019.72
2019-04-01T08:24:06.022Z,1019.69
2019-04-01T08:25:07.417Z,1019.69
2019-04-01T08:27:28.987Z,1019.68
2019-04-01T08:28:25.135Z,1019.59
2019-04-01T08:29:30.584Z,1019.64
2019-04-01T08:30:25.151Z,1019.60
2019-04-01T08:31:25.080Z,1019.62
2019-04-01T08:32:25.051Z,1019.65
2019-04-01T08:33:25.031Z,1019.73
2019-04-01T08:34:25.014Z,1019.63
2019-04-01T08:35:24.989Z,1019.72
2019-04-01T08:37:24.565Z,1019.64
2019-04-01T08:38:24.552Z,1019.73
2019-04-01T08:39:24.531Z,1019.73
2019-04-01T08:40:24.503Z,1019.68
2019-04-01T08:41:24.492Z,1019.61
2019-04-01T08:42:24.473Z,1019.59
2019-04-01T08:43:24.446Z,1019.61
2019-04-01T08:44:24.428Z,1019.59
2019-04-01T08:45:57.626Z,1019.58
2019-04-01T08:46:24.388Z,1019.51
2019-04-01T08:47:24.368Z,1019.54
2019-04-01T08:48:24.350Z,1019.54
2019-04-01T08:49:24.346Z,1019.58
2019-04-01T08:50:24.312Z,1019.68
2019-04-01T08:51:24.296Z,1019.50
2019-04-01T08:52:24.274Z,1019.51
2019-04-01T08:53:24.264Z,1019.52
2019-04-01T08:54:24.238Z,1019.61
2019-04-01T08:55:24.216Z,1019.58
2019-04-01T08:56:24.253Z,1019.71
2019-04-01T08:57:24.182Z,1019.68
2019-04-01T08:58:24.178Z,1019.70
2019-04-01T08:59:24.149Z,1019.56
2019-04-01T09:00:24.128Z,1019.71
2019-04-01T09:01:35.066Z,1019.78
2019-04-01T09:02:24.106Z,1019.69
2019-04-01T09:03:24.076Z,1019.64
2019-04-01T09:04:24.073Z,1019.68
2019-04-01T09:05:24.044Z,1019.60
2019-04-01T09:06:24.025Z,1019.65
2019-04-01T09:07:24.004Z,1019.64
2019-04-01T09:08:24.002Z,1019.55
2019-04-01T09:09:23.970Z,1019.51
2019-04-01T09:10:23.965Z,1019.67
2019-04-01T09:11:23.945Z,1019.51
2019-04-01T09:12:23.922Z,1019.50
2019-04-01T09:13:23.907Z,1019.48
2019-04-01T09:14:23.900Z,1019.56
2019-04-01T09:15:23.883Z,1019.38
2019-04-01T09:16:23.872Z,1019.67
2019-04-01T09:17:23.849Z,1019.56
2019-04-01T09:18:23.828Z,1019.49
2019-04-01T09:19:23.812Z,1019.42
2019-04-01T09:20:23.802Z,1019.48
2019-04-01T09:21:23.782Z,1019.43
2019-04-01T09:22:23.769Z,1019.35
2019-04-01T09:23:23.749Z,1019.47
2019-04-01T09:24:23.736Z,1019.47
2019-04-01T09:25:23.721Z,1019.32
2019-04-01T09:26:23.705Z,1019.34
2019-04-01T09:27:23.693Z,1019.38
2019-04-01T09:28:23.677Z,1019.38
2019-04-01T09:29:23.678Z,1019.40
2019-04-01T09:30:23.648Z,1019.38
2019-04-01T09:31:23.632Z,1019.43
2019-04-01T09:32:23.627Z,1019.34
2019-04-01T09:33:23.606Z,1019.30
2019-04-01T09:34:23.600Z,1019.39
2019-04-01T09:35:23.577Z,1019.37
2019-04-01T09:36:23.571Z,1019.37
2019-04-01T09:37:23.553Z,1019.38
2019-04-01T09:38:23.535Z,1019.30
2019-04-01T09:39:23.521Z,1019.32
2019-04-01T09:40:23.522Z,1019.35
2019-04-01T09:41:23.495Z,1019.30
2019-04-01T09:42:23.481Z,1019.31
2019-04-01T09:43:23.477Z,1019.22
2019-04-01T09:44:35.996Z,1019.31
2019-04-01T09:45:23.444Z,1019.31
2019-04-01T09:46:23.426Z,1019.28
2019-04-01T09:47:23.427Z,1019.28
2019-04-01T09:48:23.753Z,1019.34
2019-04-01T09:49:23.391Z,1019.25
2019-04-01T09:50:23.391Z,1019.21
2019-04-01T09:51:23.377Z,1019.22
2019-04-01T09:52:23.353Z,1019.13
2019-04-01T09:53:23.341Z,1019.13
2019-04-01T09:54:23.332Z,1019.16
2019-04-01T09:55:23.323Z,1019.19
2019-04-01T09:56:23.313Z,1019.14
2019-04-01T09:57:23.303Z,1019.16
2019-04-01T09:58:23.285Z,1019.18
2019-04-01T09:59:23.272Z,1019.16
2019-04-01T10:00:23.260Z,1019.10
2019-04-01T10:01:23.252Z,1019.12
2019-04-01T10:02:31.817Z,1019.07
2019-04-01T10:03:23.239Z,1019.09
2019-04-01T10:04:23.236Z,1019.03
2019-04-01T10:05:23.209Z,1019.04
2019-04-01T10:06:23.199Z,1019.03
2019-04-01T10:07:23.212Z,1019.01
2019-04-01T10:08:23.180Z,1018.99
2019-04-01T10:09:23.174Z,1019.02
2019-04-01T10:10:23.164Z,1019.01
2019-04-01T10:11:23.156Z,1018.89
2019-04-01T10:12:23.141Z,1018.90
2019-04-01T10:13:23.132Z,1018.85
2019-04-01T10:14:23.120Z,1018.95
2019-04-01T10:15:23.107Z,1018.86
2019-04-01T10:16:26.388Z,1018.79
2019-04-01T10:17:23.096Z,1018.77
2019-04-01T10:18:23.080Z,1018.84
2019-04-01T10:19:23.077Z,1018.75
2019-04-01T10:20:23.070Z,1018.71
2019-04-01T10:21:23.060Z,1018.72
2019-04-01T10:22:23.064Z,1018.80
2019-04-01T10:23:23.038Z,1018.78
2019-04-01T10:24:23.019Z,1018.71
2019-04-01T10:25:23.010Z,1018.68
2019-04-01T10:26:23.000Z,1018.66
2019-04-01T10:27:22.984Z,1018.66
2019-04-01T10:28:22.975Z,1018.73
2019-04-01T10:29:22.964Z,1018.67
2019-04-01T10:30:22.960Z,1018.65
2019-04-01T10:31:22.950Z,1018.60
2019-04-01T10:32:22.932Z,1018.59
2019-04-01T10:33:22.922Z,1018.58
2019-04-01T10:34:22.914Z,1018.62
2019-04-01T10:35:22.903Z,1018.53
2019-04-01T10:36:22.893Z,1018.55
2019-04-01T10:37:22.891Z,1018.59
2019-04-01T10:38:22.879Z,1018.73
2019-04-01T10:39:22.868Z,1018.48
2019-04-01T10:40:22.863Z,1018.45
2019-04-01T10:41:22.858Z,1018.48
2019-04-01T10:42:22.842Z,1018.49
2019-04-01T10:43:22.833Z,1018.39
2019-04-01T10:44:22.825Z,1018.40
2019-04-01T10:45:22.813Z,1018.34
2019-04-01T10:46:22.798Z,1018.42
2019-04-01T10:47:22.814Z,1018.34
2019-04-01T10:48:22.778Z,1018.31
2019-04-01T10:49:22.780Z,1018.33
2019-04-01T10:50:22.805Z,1018.38
2019-04-01T10:51:22.804Z,1018.39
2019-04-01T10:52:22.787Z,1018.39
2019-04-01T10:53:22.795Z,1018.27
2019-04-01T10:54:22.718Z,1018.36
2019-04-01T10:55:22.758Z,1018.27
2019-04-01T10:56:22.733Z,1018.22
2019-04-01T10:57:22.693Z,1018.24
2019-04-01T10:58:22.739Z,1018.37
2019-04-01T10:59:22.709Z,1018.39
2019-04-01T11:00:22.718Z,1018.37
2019-04-01T11:01:22.666Z,1018.31
2019-04-01T11:02:22.715Z,1018.33
2019-04-01T11:03:22.643Z,1018.30
2019-04-01T11:04:22.694Z,1018.27
2019-04-01T11:05:22.749Z,1018.28
2019-04-01T11:06:22.601Z,1018.28
2019-04-01T11:07:22.636Z,1018.26
2019-04-01T11:08:22.724Z,1018.34
2019-04-01T11:09:37.375Z,1018.38
2019-04-01T11:10:22.555Z,1018.33
2019-04-01T11:11:22.554Z,1018.31
2019-04-01T11:12:22.533Z,1018.29
2019-04-01T11:13:22.523Z,1018.28
2019-04-01T11:14:22.985Z,1018.27
2019-04-01T11:15:22.505Z,1018.28
2019-04-01T11:16:22.493Z,1018.30
2019-04-01T11:17:22.485Z,1018.28
2019-04-01T11:18:22.476Z,1018.24
2019-04-01T11:19:22.462Z,1018.24
2019-04-01T11:20:22.461Z,1018.30
2019-04-01T11:21:22.441Z,1018.45
2019-04-01T11:22:22.432Z,1018.46
2019-04-01T11:23:22.423Z,1018.33
2019-04-01T11:24:22.412Z,1018.38
2019-04-01T11:25:22.401Z,1018.38
2019-04-01T11:26:22.391Z,1018.39
2019-04-01T11:27:22.379Z,1018.41
2019-04-01T11:28:22.367Z,1018.32
2019-04-01T11:29:25.481Z,1018.29
2019-04-01T11:30:22.346Z,1018.31
2019-04-01T11:31:22.386Z,1018.29
2019-04-01T11:32:22.333Z,1018.23
2019-04-01T11:33:22.451Z,1018.21
2019-04-01T11:34:22.347Z,1018.31
2019-04-01T11:35:22.301Z,1018.37
2019-04-01T11:36:22.300Z,1018.36
2019-04-01T11:37:22.303Z,1018.26
2019-04-01T11:38:22.265Z,1018.31
2019-04-01T11:39:22.257Z,1018.30
2019-04-01T11:40:22.240Z,1018.24
2019-04-01T11:41:22.268Z,1018.24
2019-04-01T11:42:22.969Z,1018.32
2019-04-01T11:43:23.450Z,1018.28
2019-04-01T11:44:22.446Z,1018.20
2019-04-01T11:45:22.672Z,1018.14
2019-04-01T11:46:23.275Z,1017.94
2019-04-01T11:47:22.518Z,1017.88
2019-04-01T11:48:22.181Z,1018.02
2019-04-01T11:49:22.534Z,1018.10
2019-04-01T11:50:22.156Z,1018.20
2019-04-01T11:51:32.574Z,1018.01
2019-04-01T11:52:22.146Z,1018.03
2019-04-01T11:53:22.089Z,1017.90
2019-04-01T11:54:22.071Z,1017.58
2019-04-01T11:55:22.055Z,1017.28
2019-04-01T11:56:22.030Z,1017.24
2019-04-01T11:57:22.017Z,1017.35
2019-04-01T11:58:22.010Z,1017.21
2019-04-01T11:59:21.990Z,1017.21
2019-04-01T12:00:21.975Z,1017.16
2019-04-01T12:01:21.960Z,1017.11
2019-04-01T12:02:21.955Z,1017.11
2019-04-01T12:03:21.933Z,1017.07
2019-04-01T12:04:22.191Z,1017.09
2019-04-01T12:05:22.133Z,1017.04
2019-04-01T12:06:21.890Z,1016.99
2019-04-01T12:07:21.876Z,1017.00